Time;durP1;ratioP1;P1;durP2;ratioP2;P2;SDS_P1;SDS_P2;PMS_P1;PMS_P2;Temp;Humidity;BMP_temperature;BMP_pressure;BME280_temperature;BME280_humidity;BME280_pressure;Samples;Min_cycle;Max_cycle;Signal;HPM_P1;HPM_P2
2021/12/17 00:00:36;;;;;;;35.40;18.05;;;8.50;99.90;;;;;;5055313;28;20037;-81
2021/12/17 00:05:43;;;;;;;36.67;16.92;;;8.50;99.90;;;;;;5058549;28;20044;-81
2021/12/17 00:08:09;;;;;;;32.65;17.30;;;8.50;99.90;;;;;;5061262;28;20041;-80
2021/12/17 00:10:35;;;;;;;40.60;19.90;;;8.50;99.90;;;;;;5079396;28;20039;-81
2021/12/17 00:13:00;;;;;;;42.25;19.77;;;8.50;99.90;;;;;;5044872;28;20048;-81
2021/12/17 00:15:26;;;;;;;39.83;20.20;;;8.50;99.90;;;;;;5044736;28;20032;-81
2021/12/17 00:17:58;;;;;;;51.58;21.90;;;8.50;99.90;;;;;;5044657;28;20052;-81
2021/12/17 00:51:09;;;;;;;34.08;14.45;;;8.40;99.90;;;;;;5061373;28;20041;-80
2021/12/17 00:53:06;;;;;;;;;;;8.40;99.90;;;;;;5062378;28;20049;-81
2021/12/17 00:55:32;;;;;;;33.85;14.77;;;8.40;99.90;;;;;;5062041;28;19924;-81
2021/12/17 00:57:58;;;;;;;39.92;17.13;;;8.40;99.90;;;;;;5065311;28;20088;-80
2021/12/17 01:00:24;;;;;;;36.92;16.30;;;8.40;99.90;;;;;;5078378;28;20067;-80
2021/12/17 01:02:50;;;;;;;47.85;19.83;;;8.40;99.90;;;;;;5060083;28;20047;-80
2021/12/17 01:05:27;;;;;;;60.75;24.35;;;8.40;99.90;;;;;;5045195;28;20037;-80
2021/12/17 01:07:55;;;;;;;48.95;22.33;;;8.40;99.90;;;;;;5045553;28;20159;-81
2021/12/17 01:10:26;;;;;;;67.53;26.00;;;8.40;99.90;;;;;;5044850;28;20044;-80
2021/12/17 01:12:51;;;;;;;51.97;23.38;;;8.40;99.90;;;;;;5044451;28;20032;-81
2021/12/17 01:15:19;;;;;;;63.10;26.40;;;8.40;99.90;;;;;;5078453;28;20374;-80
2021/12/17 01:17:50;;;;;;;53.85;23.17;;;8.40;99.90;;;;;;5076652;28;20116;-80
2021/12/17 01:36:29;;;;;;;53.17;21.83;;;8.40;99.90;;;;;;5058776;28;20041;-80
2021/12/17 01:43:51;;;;;;;41.17;18.75;;;8.40;99.90;;;;;;5060430;28;20041;-80
2021/12/17 01:46:21;;;;;;;43.83;20.70;;;8.40;99.90;;;;;;5058307;28;20071;-80
2021/12/17 01:49:25;;;;;;;50.15;22.83;;;8.40;99.90;;;;;;5056493;28;20061;-81
2021/12/17 01:59:55;;;;;;;42.78;19.25;;;8.40;99.90;;;;;;5058577;28;20456;-80
2021/12/17 02:02:21;;;;;;;50.55;20.08;;;8.40;99.90;;;;;;5073963;28;20401;-80
2021/12/17 02:04:46;;;;;;;55.58;22.25;;;8.40;99.90;;;;;;5041543;28;20047;-80
2021/12/17 02:07:12;;;;;;;49.15;20.65;;;8.40;99.90;;;;;;5058307;28;20041;-80
2021/12/17 02:20:59;;;;;;;58.50;25.65;;;8.40;99.90;;;;;;5065600;28;20068;-82
2021/12/17 02:29:46;;;;;;;49.60;23.27;;;8.30;99.90;;;;;;4992278;28;20411;-82
2021/12/17 02:32:12;;;;;;;64.35;28.38;;;8.30;99.90;;;;;;4992308;28;20042;-81
2021/12/17 02:35:02;;;;;;;65.38;29.35;;;8.30;99.90;;;;;;5028294;28;20128;-82
2021/12/17 02:37:30;;;;;;;65.82;28.50;;;8.30;99.90;;;;;;5033003;28;20041;-82
2021/12/17 02:42:23;;;;;;;57.20;26.92;;;8.30;99.90;;;;;;5049838;28;20068;-82
2021/12/17 02:45:35;;;;;;;52.38;22.40;;;8.30;99.90;;;;;;5049603;28;20044;-81
2021/12/17 02:48:15;;;;;;;70.18;26.55;;;8.30;99.90;;;;;;5049238;28;20048;-82
2021/12/17 02:50:47;;;;;;;52.05;23.20;;;8.30;99.90;;;;;;5066136;28;20537;-82
2021/12/17 02:53:15;;;;;;;56.30;21.83;;;8.30;99.90;;;;;;5032765;28;20478;-82
2021/12/17 02:55:46;;;;;;;50.33;22.10;;;8.30;99.90;;;;;;5032241;28;20061;-82
2021/12/17 02:58:12;;;;;;;48.20;22.65;;;8.20;99.90;;;;;;5030261;28;20047;-82
2021/12/17 03:00:40;;;;;;;49.08;21.65;;;8.20;99.90;;;;;;5049027;28;20051;-81
2021/12/17 03:03:07;;;;;;;57.47;23.05;;;8.20;99.90;;;;;;5049711;28;20295;-82
2021/12/17 03:05:34;;;;;;;67.30;27.25;;;8.20;99.90;;;;;;5032736;28;20049;-82
2021/12/17 03:08:00;;;;;;;44.90;20.27;;;8.10;99.90;;;;;;5048860;28;20049;-82
2021/12/17 03:10:26;;;;;;;60.00;26.23;;;8.10;99.90;;;;;;5062599;28;20047;-82
2021/12/17 03:12:57;;;;;;;54.25;21.92;;;8.10;99.90;;;;;;5032254;28;20033;-82
2021/12/17 03:15:41;;;;;;;40.95;20.27;;;8.10;99.90;;;;;;5048954;28;20029;-82
2021/12/17 03:26:01;;;;;;;37.75;18.50;;;8.10;99.90;;;;;;5049379;28;20048;-82
2021/12/17 03:28:27;;;;;;;39.97;18.80;;;8.00;99.90;;;;;;5048912;28;20520;-82
2021/12/17 03:30:53;;;;;;;41.40;18.27;;;8.00;99.90;;;;;;5062105;28;20037;-81
2021/12/17 03:33:21;;;;;;;68.80;25.40;;;8.00;99.90;;;;;;5048740;28;20242;-82
2021/12/17 03:35:47;;;;;;;71.35;25.90;;;8.00;99.90;;;;;;5048827;28;20037;-82
2021/12/17 03:38:13;;;;;;;58.78;22.70;;;8.00;99.90;;;;;;5048966;28;20477;-82
2021/12/17 03:40:41;;;;;;;34.67;16.10;;;8.00;99.90;;;;;;5035555;28;20067;-82
2021/12/17 03:43:12;;;;;;;30.92;14.85;;;7.90;99.90;;;;;;5052517;28;20090;-82
2021/12/17 03:45:41;;;;;;;39.97;19.33;;;8.00;99.90;;;;;;5052402;28;20045;-82
2021/12/17 03:48:08;;;;;;;29.55;15.60;;;7.90;99.90;;;;;;5035819;28;20044;-82
2021/12/17 03:50:36;;;;;;;30.83;13.50;;;7.90;99.90;;;;;;5052712;28;20033;-82
2021/12/17 03:53:02;;;;;;;22.17;11.35;;;7.90;99.90;;;;;;5052786;28;20052;-82
2021/12/17 03:55:28;;;;;;;44.15;16.08;;;7.90;99.90;;;;;;5038384;28;20392;-82
2021/12/17 03:57:54;;;;;;;62.90;23.88;;;7.80;99.90;;;;;;5035742;28;20038;-82
2021/12/17 04:00:19;;;;;;;37.67;17.15;;;7.80;99.90;;;;;;5052712;28;20149;-82
2021/12/17 04:02:46;;;;;;;54.85;22.20;;;7.80;99.90;;;;;;5052730;28;20578;-82
2021/12/17 04:05:11;;;;;;;52.58;20.48;;;7.70;99.90;;;;;;5052716;28;20501;-82
2021/12/17 04:07:37;;;;;;;52.15;22.98;;;7.70;99.90;;;;;;5051850;28;20036;-82
2021/12/17 04:10:04;;;;;;;59.45;23.10;;;7.70;99.90;;;;;;5052489;28;20124;-82
2021/12/17 04:13:14;;;;;;;85.95;29.40;;;7.70;99.90;;;;;;5051910;28;20469;-82
2021/12/17 04:15:31;;;;;;;64.80;26.60;;;7.70;99.90;;;;;;5050735;28;20049;-82
2021/12/17 04:17:58;;;;;;;51.88;21.13;;;7.60;99.90;;;;;;5035318;28;20507;-82
2021/12/17 04:20:24;;;;;;;74.95;28.63;;;7.60;99.90;;;;;;5035288;28;20443;-82
2021/12/17 04:22:49;;;;;;;70.22;29.58;;;7.60;99.90;;;;;;5069498;28;20047;-82
2021/12/17 04:25:15;;;;;;;66.93;26.60;;;7.70;99.90;;;;;;5051980;28;20052;-83
2021/12/17 04:27:40;;;;;;;50.97;20.95;;;7.60;99.90;;;;;;5067946;28;20079;-82
2021/12/17 04:30:06;;;;;;;59.60;25.30;;;7.70;99.90;;;;;;5051687;28;20071;-82
2021/12/17 04:32:32;;;;;;;64.53;25.98;;;7.70;99.90;;;;;;5068187;28;20059;-82
2021/12/17 04:34:58;;;;;;;53.40;23.15;;;7.80;99.90;;;;;;5035185;28;20123;-82
2021/12/17 04:37:23;;;;;;;51.97;22.38;;;7.80;99.90;;;;;;5067783;28;20464;-82
2021/12/17 04:39:50;;;;;;;57.92;23.80;;;7.80;99.90;;;;;;5068811;28;20083;-82
2021/12/17 04:45:10;;;;;;;60.92;20.85;;;7.90;99.90;;;;;;5013535;28;20367;-82
2021/12/17 04:58:33;;;;;;;27.17;12.88;;;7.80;99.90;;;;;;5067624;28;20045;-82
2021/12/17 05:01:01;;;;;;;29.38;13.88;;;7.80;99.90;;;;;;5051251;28;20036;-82
2021/12/17 05:03:26;;;;;;;25.15;11.38;;;7.90;99.90;;;;;;5034331;28;20033;-82
2021/12/17 05:05:52;;;;;;;25.08;11.00;;;7.90;99.90;;;;;;5050927;28;20041;-82
2021/12/17 05:08:20;;;;;;;34.22;12.98;;;7.90;99.90;;;;;;5034231;28;20029;-82
2021/12/17 05:19:14;;;;;;;27.10;11.45;;;7.90;99.90;;;;;;5014854;28;20059;-82
2021/12/17 05:21:39;;;;;;;20.77;9.95;;;7.90;99.90;;;;;;5033768;28;20033;-82
2021/12/17 05:24:05;;;;;;;21.33;9.88;;;7.90;99.90;;;;;;5050839;28;20044;-82
2021/12/17 05:26:31;;;;;;;20.05;8.68;;;7.90;99.90;;;;;;5066834;28;20401;-82
2021/12/17 05:28:56;;;;;;;21.17;8.80;;;7.90;99.90;;;;;;5050778;28;20391;-82
2021/12/17 05:31:22;;;;;;;18.95;7.68;;;7.90;99.90;;;;;;5033953;28;20037;-83
2021/12/17 05:33:49;;;;;;;20.98;9.23;;;7.90;99.90;;;;;;5050642;28;20033;-82
2021/12/17 05:36:15;;;;;;;21.33;9.35;;;7.90;99.90;;;;;;5033627;28;20040;-83
2021/12/17 05:38:41;;;;;;;19.90;8.57;;;7.90;99.90;;;;;;5066876;28;20130;-83
2021/12/17 05:41:06;;;;;;;19.83;8.52;;;7.90;99.90;;;;;;5050294;28;20072;-82
2021/12/17 05:43:36;;;;;;;20.95;8.68;;;7.90;99.90;;;;;;5033859;28;20503;-83
2021/12/17 05:46:09;;;;;;;17.45;7.85;;;7.90;99.90;;;;;;5049830;28;20108;-82
2021/12/17 05:48:36;;;;;;;19.40;8.57;;;7.90;99.90;;;;;;5033588;28;20059;-83
2021/12/17 05:51:05;;;;;;;21.60;9.73;;;7.90;99.90;;;;;;5066691;28;20492;-82
2021/12/17 05:53:32;;;;;;;19.75;9.20;;;7.90;99.90;;;;;;5033575;28;20033;-82
2021/12/17 05:55:58;;;;;;;24.15;10.23;;;7.90;99.90;;;;;;5033779;28;20036;-83
2021/12/17 05:58:25;;;;;;;17.90;8.35;;;7.90;99.90;;;;;;5033483;28;20040;-82
2021/12/17 06:00:50;;;;;;;17.35;8.55;;;7.90;99.90;;;;;;5030795;28;20033;-82
2021/12/17 06:03:18;;;;;;;17.77;9.05;;;7.90;99.90;;;;;;5050060;28;20102;-81
2021/12/17 06:05:44;;;;;;;21.00;9.20;;;7.90;99.90;;;;;;5049858;28;20390;-82
2021/12/17 06:08:10;;;;;;;19.15;9.20;;;7.90;99.90;;;;;;5066624;28;20456;-82
2021/12/17 06:10:36;;;;;;;16.65;8.20;;;7.90;99.90;;;;;;5066136;28;20120;-82
2021/12/17 06:13:01;;;;;;;16.90;8.50;;;7.90;99.90;;;;;;5066174;28;20037;-82
2021/12/17 06:15:27;;;;;;;19.80;9.60;;;7.90;99.90;;;;;;5066792;28;20035;-84
2021/12/17 06:17:54;;;;;;;13.43;8.15;;;8.00;99.90;;;;;;5032570;28;20463;-82
2021/12/17 06:20:21;;;;;;;18.17;9.45;;;7.90;99.90;;;;;;5067000;28;20062;-82
2021/12/17 06:22:47;;;;;;;17.75;8.95;;;7.90;99.90;;;;;;5048054;28;20083;-82
2021/12/17 06:25:13;;;;;;;17.92;9.25;;;7.90;99.90;;;;;;5067408;28;20452;-83
2021/12/17 06:27:40;;;;;;;15.45;8.80;;;7.90;99.90;;;;;;5066483;28;20144;-82
2021/12/17 06:30:07;;;;;;;20.30;9.90;;;7.90;99.90;;;;;;5067297;28;20077;-82
2021/12/17 06:32:33;;;;;;;18.00;8.65;;;7.90;99.90;;;;;;5066183;28;20117;-83
2021/12/17 06:34:59;;;;;;;20.58;9.02;;;7.90;99.90;;;;;;5032817;28;20120;-83
2021/12/17 06:37:24;;;;;;;20.20;8.73;;;7.90;99.90;;;;;;5049266;28;20041;-82
2021/12/17 06:39:50;;;;;;;16.50;8.73;;;7.90;99.90;;;;;;5049546;28;20043;-82
2021/12/17 06:42:17;;;;;;;22.48;9.38;;;7.90;99.90;;;;;;5049534;28;20107;-81
2021/12/17 06:44:45;;;;;;;24.20;10.90;;;8.00;99.90;;;;;;5047437;28;20033;-82
2021/12/17 06:56:11;;;;;;;21.67;11.93;;;7.90;99.90;;;;;;5049231;28;20041;-82
2021/12/17 07:01:17;;;;;;;17.67;9.20;;;7.90;99.90;;;;;;5049648;28;20501;-82
2021/12/17 07:17:09;;;;;;;17.83;9.60;;;8.00;99.90;;;;;;5048669;28;20037;-83
2021/12/17 07:17:32;;;;;;;20.45;10.48;;;8.00;99.90;;;;;;5071767;28;20401;-83
2021/12/17 07:35:48;;;;;;;16.70;10.15;;;8.00;99.90;;;;;;5056089;28;20116;-83
2021/12/17 07:41:00;;;;;;;16.95;9.02;;;8.00;99.90;;;;;;5055728;28;20052;-82
2021/12/17 07:43:36;;;;;;;16.70;9.50;;;8.00;99.90;;;;;;5056072;28;20032;-82
2021/12/17 07:46:07;;;;;;;15.85;8.73;;;8.00;99.90;;;;;;5052539;28;20044;-82
2021/12/17 07:48:33;;;;;;;16.83;9.07;;;8.00;99.90;;;;;;5036859;28;20068;-83
2021/12/17 07:51:02;;;;;;;18.80;9.02;;;8.00;99.90;;;;;;5038340;28;20556;-82
2021/12/17 07:53:29;;;;;;;16.27;9.23;;;8.00;99.90;;;;;;5055558;28;20082;-83
2021/12/17 07:55:55;;;;;;;20.33;10.50;;;8.00;99.90;;;;;;5038250;28;20460;-81
2021/12/17 07:58:21;;;;;;;16.17;9.05;;;8.00;99.90;;;;;;5055780;28;20389;-83
2021/12/17 08:00:47;;;;;;;21.08;9.80;;;8.00;99.90;;;;;;5055388;28;20037;-83
2021/12/17 08:03:14;;;;;;;22.50;10.35;;;8.10;99.90;;;;;;5055635;28;20120;-83
2021/12/17 08:05:42;;;;;;;19.58;9.40;;;8.00;99.90;;;;;;5055031;28;20044;-83
2021/12/17 08:08:08;;;;;;;17.58;9.55;;;8.10;99.90;;;;;;5055117;28;20040;-83
2021/12/17 08:10:34;;;;;;;17.30;9.38;;;8.10;99.90;;;;;;5055024;28;20033;-82
2021/12/17 08:12:59;;;;;;;20.45;9.38;;;8.10;99.90;;;;;;5040548;28;20051;-84
2021/12/17 08:15:32;;;;;;;19.63;9.68;;;8.10;99.90;;;;;;5038445;28;20101;-84
2021/12/17 08:18:22;;;;;;;22.15;12.57;;;8.10;99.90;;;;;;5039712;28;20044;-82
2021/12/17 08:26:17;;;;;;;17.95;10.73;;;8.10;99.90;;;;;;5069258;28;20049;-81
2021/12/17 08:31:24;;;;;;;20.40;10.98;;;8.10;99.90;;;;;;5055853;28;20405;-81
2021/12/17 08:33:50;;;;;;;20.40;11.00;;;8.20;99.90;;;;;;5056161;28;20067;-81
2021/12/17 08:36:16;;;;;;;17.83;11.10;;;8.20;99.90;;;;;;5057407;28;20037;-81
2021/12/17 08:38:43;;;;;;;21.20;11.20;;;8.20;99.90;;;;;;5039205;28;20047;-82
2021/12/17 08:41:09;;;;;;;20.45;12.75;;;8.20;99.90;;;;;;5043722;28;20429;-82
2021/12/17 08:43:35;;;;;;;21.70;10.90;;;8.20;99.90;;;;;;5056927;28;20060;-82
2021/12/17 08:46:01;;;;;;;18.90;11.77;;;8.20;99.90;;;;;;5066281;28;20478;-82
2021/12/17 08:48:26;;;;;;;22.50;12.55;;;8.20;99.90;;;;;;5053161;28;20052;-83
2021/12/17 08:50:52;;;;;;;19.10;10.63;;;8.30;99.90;;;;;;5037334;28;20067;-83
2021/12/17 08:53:17;;;;;;;22.23;12.73;;;8.30;99.90;;;;;;5053623;28;20033;-82
2021/12/17 08:55:43;;;;;;;19.40;10.40;;;8.30;99.90;;;;;;5053236;28;20029;-82
2021/12/17 08:58:13;;;;;;;23.50;11.63;;;8.30;99.90;;;;;;5054338;28;20108;-82
2021/12/17 09:00:40;;;;;;;20.00;11.23;;;8.30;99.90;;;;;;5053615;28;20111;-83
2021/12/17 09:03:09;;;;;;;21.05;11.63;;;8.40;99.90;;;;;;5054401;28;20041;-82
2021/12/17 09:05:38;;;;;;;16.42;10.15;;;8.40;99.90;;;;;;5052579;28;20083;-82
2021/12/17 09:08:10;;;;;;;21.90;11.23;;;8.40;99.90;;;;;;5054321;28;20037;-82
2021/12/17 09:10:36;;;;;;;17.83;11.70;;;8.40;99.90;;;;;;5054378;28;20037;-83
2021/12/17 09:13:02;;;;;;;18.15;10.60;;;8.50;99.90;;;;;;5040603;28;20041;-82
2021/12/17 09:15:28;;;;;;;18.95;10.75;;;8.50;99.90;;;;;;5050043;28;20611;-82
2021/12/17 09:17:54;;;;;;;18.73;9.40;;;8.50;99.90;;;;;;5054223;28;20063;-82
2021/12/17 09:20:19;;;;;;;18.65;10.23;;;8.50;99.90;;;;;;5053011;28;20486;-83
2021/12/17 09:22:45;;;;;;;18.05;10.48;;;8.50;99.90;;;;;;5053179;28;20048;-82
2021/12/17 09:25:11;;;;;;;20.23;11.63;;;8.50;99.90;;;;;;5036692;28;20557;-82
2021/12/17 09:27:37;;;;;;;17.98;11.45;;;8.60;99.90;;;;;;5053630;28;20436;-82
2021/12/17 09:30:05;;;;;;;21.35;11.75;;;8.60;99.90;;;;;;5054335;28;20060;-82
2021/12/17 09:32:31;;;;;;;18.90;12.15;;;8.60;99.90;;;;;;5054252;28;20068;-82
2021/12/17 09:34:57;;;;;;;24.02;13.82;;;8.60;99.90;;;;;;5038423;28;20037;-82
2021/12/17 09:37:23;;;;;;;18.90;10.48;;;8.70;99.90;;;;;;5045796;28;20033;-83
2021/12/17 09:39:49;;;;;;;18.60;12.90;;;8.70;99.90;;;;;;5053320;28;20040;-82
2021/12/17 09:42:15;;;;;;;19.52;10.27;;;8.70;99.90;;;;;;5052754;28;20397;-83
2021/12/17 09:44:41;;;;;;;19.15;11.23;;;8.80;99.90;;;;;;5054147;28;20439;-82
2021/12/17 09:47:08;;;;;;;18.15;10.27;;;8.80;99.90;;;;;;5056640;28;20079;-82
2021/12/17 09:49:34;;;;;;;14.63;10.32;;;8.80;99.90;;;;;;5071244;28;20037;-82
2021/12/17 09:52:00;;;;;;;17.35;11.73;;;8.80;99.90;;;;;;5071092;28;20044;-81
2021/12/17 09:54:26;;;;;;;18.92;10.75;;;8.80;99.90;;;;;;5073150;28;20113;-81
2021/12/17 09:56:52;;;;;;;21.02;10.73;;;8.80;99.90;;;;;;5071025;28;20049;-81
2021/12/17 09:59:17;;;;;;;17.00;10.13;;;8.90;99.90;;;;;;5073243;28;20523;-81
2021/12/17 10:01:45;;;;;;;17.58;10.30;;;8.90;99.90;;;;;;5071682;28;20032;-81
2021/12/17 10:04:20;;;;;;;18.52;9.75;;;8.90;99.90;;;;;;5070009;28;20393;-81
2021/12/17 10:06:48;;;;;;;16.40;11.13;;;8.90;99.90;;;;;;5037908;28;20045;-81
2021/12/17 10:09:15;;;;;;;20.58;11.25;;;8.90;99.90;;;;;;5054756;28;20488;-81
2021/12/17 10:12:06;;;;;;;17.83;10.52;;;9.00;99.90;;;;;;5038339;28;20357;-81
2021/12/17 10:14:32;;;;;;;22.58;11.38;;;8.90;99.90;;;;;;5064150;28;20048;-81
2021/12/17 10:17:11;;;;;;;16.33;10.18;;;8.90;99.90;;;;;;5056828;28;20040;-81
2021/12/17 10:19:49;;;;;;;19.27;11.18;;;9.00;99.90;;;;;;5071939;28;20528;-81
2021/12/17 10:22:17;;;;;;;41.90;23.50;;;9.00;99.90;;;;;;5066562;28;20066;-81
2021/12/17 10:24:45;;;;;;;48.15;27.92;;;9.00;99.90;;;;;;5069031;28;20044;-82
2021/12/17 10:27:22;;;;;;;27.98;17.23;;;9.00;99.90;;;;;;5037847;28;20041;-82
2021/12/17 10:29:48;;;;;;;35.03;23.98;;;9.00;99.90;;;;;;5052283;28;20456;-82
2021/12/17 10:32:19;;;;;;;31.13;20.40;;;9.00;99.90;;;;;;5036744;28;20025;-82
2021/12/17 10:35:01;;;;;;;30.65;18.73;;;9.10;99.90;;;;;;5037225;28;20044;-82
2021/12/17 10:37:44;;;;;;;18.88;11.23;;;9.10;99.90;;;;;;5055196;28;20123;-82
2021/12/17 10:40:30;;;;;;;23.13;11.65;;;9.10;99.90;;;;;;5051504;28;20166;-82
2021/12/17 10:43:07;;;;;;;24.92;14.27;;;9.10;99.90;;;;;;5036419;28;20041;-82
2021/12/17 10:45:39;;;;;;;18.58;10.75;;;9.10;99.90;;;;;;5058824;28;20045;-82
2021/12/17 10:48:28;;;;;;;21.90;10.45;;;9.10;99.90;;;;;;5034536;28;20037;-82
2021/12/17 10:51:19;;;;;;;16.40;8.88;;;9.10;99.90;;;;;;5043955;28;20055;-82
2021/12/17 10:53:46;;;;;;;19.55;10.77;;;9.20;99.90;;;;;;5070469;28;20086;-82
2021/12/17 10:56:16;;;;;;;21.65;11.80;;;9.10;99.90;;;;;;5054516;28;20036;-82
2021/12/17 10:58:59;;;;;;;18.63;10.68;;;9.20;99.90;;;;;;5071967;28;20036;-82
2021/12/17 11:01:49;;;;;;;19.98;10.85;;;9.20;99.90;;;;;;5064193;28;20040;-82
2021/12/17 11:04:28;;;;;;;17.33;10.65;;;9.20;99.90;;;;;;5044011;28;20041;-80
2021/12/17 11:07:03;;;;;;;18.42;10.45;;;9.20;99.90;;;;;;5058105;28;20067;-82
2021/12/17 11:09:48;;;;;;;24.98;12.35;;;9.20;99.90;;;;;;5058007;28;20659;-81
2021/12/17 11:12:23;;;;;;;23.50;13.05;;;9.20;99.90;;;;;;5058895;28;20029;-82
2021/12/17 11:14:49;;;;;;;20.88;12.98;;;9.20;99.90;;;;;;5058793;28;20037;-82
2021/12/17 11:17:17;;;;;;;25.27;13.50;;;9.30;99.90;;;;;;5058767;28;20037;-82
2021/12/17 11:19:44;;;;;;;21.50;11.45;;;9.30;99.90;;;;;;5074768;28;20041;-82
2021/12/17 11:22:10;;;;;;;24.42;11.85;;;9.40;99.90;;;;;;5075963;28;20078;-82
2021/12/17 11:24:37;;;;;;;25.67;12.95;;;9.40;99.90;;;;;;5041965;28;20072;-82
2021/12/17 11:27:05;;;;;;;26.08;17.42;;;9.40;99.90;;;;;;5043878;28;20041;-82
2021/12/17 11:29:31;;;;;;;20.08;12.05;;;9.40;99.90;;;;;;5042046;28;20057;-82
2021/12/17 11:31:59;;;;;;;21.15;12.23;;;9.40;99.90;;;;;;5058926;28;20092;-82
2021/12/17 11:34:25;;;;;;;23.40;12.88;;;9.50;99.90;;;;;;5042525;28;20111;-82
2021/12/17 11:36:52;;;;;;;21.45;14.35;;;9.50;99.90;;;;;;5076131;28;20044;-82
2021/12/17 11:39:26;;;;;;;20.63;11.65;;;9.50;99.90;;;;;;5059857;28;20037;-82
2021/12/17 11:42:24;;;;;;;10.97;8.00;;;9.50;99.90;;;;;;5043025;28;20092;-82
2021/12/17 11:45:23;;;;;;;19.70;11.73;;;9.50;99.90;;;;;;5060669;28;20044;-82
2021/12/17 11:47:41;;;;;;;19.88;9.27;;;9.50;99.90;;;;;;5062234;28;20076;-82
2021/12/17 11:50:09;;;;;;;20.90;9.13;;;9.50;99.90;;;;;;5044330;28;20037;-82
2021/12/17 11:52:35;;;;;;;41.63;25.60;;;9.60;99.90;;;;;;5076483;28;20045;-82
2021/12/17 11:55:25;;;;;;;27.55;16.67;;;9.60;99.90;;;;;;5042020;28;20069;-83
2021/12/17 11:57:54;;;;;;;19.33;12.88;;;9.60;99.90;;;;;;5054390;28;20051;-83
2021/12/17 12:00:28;;;;;;;13.68;9.15;;;9.60;99.90;;;;;;5053680;28;20047;-83
2021/12/17 12:03:12;;;;;;;37.78;29.52;;;9.60;99.90;;;;;;5073777;28;20087;-83
2021/12/17 12:05:40;;;;;;;21.58;16.17;;;9.60;99.90;;;;;;5074016;28;20044;-83
2021/12/17 12:08:45;;;;;;;21.75;14.98;;;9.60;99.90;;;;;;5074753;28;20037;-81
2021/12/17 12:11:12;;;;;;;10.95;8.32;;;9.60;99.90;;;;;;5042575;28;20029;-83
2021/12/17 12:13:44;;;;;;;23.98;17.10;;;9.60;99.90;;;;;;5042852;28;20043;-83
2021/12/17 12:16:15;;;;;;;18.88;13.88;;;9.60;99.90;;;;;;5042897;28;20048;-84
2021/12/17 12:18:45;;;;;;;13.88;9.93;;;9.50;99.90;;;;;;5076857;28;20090;-81
2021/12/17 12:21:15;;;;;;;15.85;9.23;;;9.50;99.90;;;;;;5045366;28;20033;-81
2021/12/17 12:23:44;;;;;;;14.55;9.93;;;9.60;99.90;;;;;;5061608;28;20037;-81
2021/12/17 12:26:12;;;;;;;16.15;8.82;;;9.50;99.90;;;;;;5062834;28;20112;-81
2021/12/17 12:28:47;;;;;;;16.98;9.68;;;9.50;99.90;;;;;;5045317;28;20087;-81
2021/12/17 12:31:25;;;;;;;16.13;10.75;;;9.50;99.90;;;;;;5047075;28;20072;-82
2021/12/17 12:34:04;;;;;;;7.68;5.03;;;9.50;99.90;;;;;;5059163;28;20036;-81
2021/12/17 12:36:52;;;;;;;10.50;6.85;;;9.60;99.90;;;;;;5079838;28;20044;-81
2021/12/17 12:39:20;;;;;;;12.93;9.48;;;9.60;99.90;;;;;;5060551;28;20051;-81
2021/12/17 12:42:17;;;;;;;8.38;4.28;;;9.60;99.90;;;;;;5063671;28;20048;-81
2021/12/17 12:44:46;;;;;;;7.05;6.30;;;9.60;99.90;;;;;;5060247;28;20120;-81
2021/12/17 12:47:24;;;;;;;7.95;4.07;;;9.60;99.90;;;;;;5044647;28;20041;-81
2021/12/17 12:49:59;;;;;;;4.53;2.67;;;9.60;99.90;;;;;;5044461;28;20033;-81
2021/12/17 12:52:30;;;;;;;9.45;5.03;;;9.60;99.90;;;;;;5044574;28;20494;-80
2021/12/17 12:55:00;;;;;;;5.55;3.60;;;9.70;99.90;;;;;;5038742;28;20068;-81
2021/12/17 12:57:37;;;;;;;5.00;2.63;;;9.60;99.90;;;;;;5040893;28;20076;-83
2021/12/17 13:00:11;;;;;;;8.73;5.80;;;9.70;99.90;;;;;;5070876;28;20087;-83
2021/12/17 13:02:38;;;;;;;4.68;2.97;;;9.70;99.90;;;;;;5052157;28;20037;-83
2021/12/17 13:05:06;;;;;;;4.18;1.58;;;9.70;99.90;;;;;;5061917;28;20116;-83
2021/12/17 13:07:55;;;;;;;3.72;1.52;;;9.70;99.90;;;;;;5053916;28;20040;-83
2021/12/17 13:10:30;;;;;;;12.98;8.52;;;9.70;99.90;;;;;;5056033;28;20037;-83
2021/12/17 13:13:18;;;;;;;1.80;0.45;;;9.70;99.90;;;;;;5037453;28;20098;-83
2021/12/17 13:15:51;;;;;;;2.15;0.82;;;9.70;99.90;;;;;;5039265;28;20029;-83
2021/12/17 13:24:09;;;;;;;2.75;0.77;;;9.70;99.90;;;;;;5046511;28;20056;-82
2021/12/17 13:26:37;;;;;;;3.97;2.90;;;9.70;99.90;;;;;;5047827;28;20112;-81
2021/12/17 13:29:11;;;;;;;28.05;18.10;;;9.70;99.90;;;;;;5046657;28;20064;-81
2021/12/17 13:31:56;;;;;;;6.35;4.32;;;9.70;99.90;;;;;;5031153;28;20132;-82
2021/12/17 13:34:29;;;;;;;2.65;1.55;;;9.70;99.90;;;;;;5083629;28;20032;-82
2021/12/17 13:36:57;;;;;;;1.77;0.52;;;9.70;99.90;;;;;;5084025;28;20040;-82
2021/12/17 13:39:25;;;;;;;4.57;1.20;;;9.70;99.90;;;;;;5068633;28;20096;-82
2021/12/17 13:41:51;;;;;;;2.28;1.10;;;9.60;99.90;;;;;;5070250;28;20037;-82
2021/12/17 13:44:30;;;;;;;2.30;1.33;;;9.60;99.90;;;;;;5061075;28;20047;-82
2021/12/17 13:47:23;;;;;;;1.92;0.90;;;9.60;99.90;;;;;;5053538;28;20481;-82
2021/12/17 13:49:51;;;;;;;2.30;0.90;;;9.50;99.90;;;;;;5072759;28;20097;-82
2021/12/17 13:52:19;;;;;;;3.72;1.90;;;9.50;99.90;;;;;;5057059;28;20040;-82
2021/12/17 13:54:47;;;;;;;3.05;1.38;;;9.50;99.90;;;;;;5059657;28;20052;-82
2021/12/17 13:57:16;;;;;;;4.80;2.60;;;9.50;99.90;;;;;;5040104;28;20395;-82
2021/12/17 13:59:43;;;;;;;3.67;1.58;;;9.50;99.90;;;;;;5037523;28;20033;-83
2021/12/17 14:02:13;;;;;;;2.97;1.27;;;9.50;99.90;;;;;;5057514;28;20047;-83
2021/12/17 14:04:41;;;;;;;9.15;5.15;;;9.40;99.90;;;;;;5057127;28;20051;-83
2021/12/17 14:07:09;;;;;;;3.60;1.52;;;9.40;99.90;;;;;;5061903;28;20086;-83
2021/12/17 14:09:36;;;;;;;3.70;1.63;;;9.40;99.90;;;;;;5057047;28;20033;-83
2021/12/17 14:12:30;;;;;;;9.07;3.78;;;9.40;99.90;;;;;;5068756;28;20091;-83
2021/12/17 14:14:58;;;;;;;3.90;1.90;;;9.40;99.90;;;;;;5049624;28;20528;-82
2021/12/17 14:17:23;;;;;;;6.40;3.08;;;9.40;99.90;;;;;;5070241;28;20041;-81
2021/12/17 14:19:50;;;;;;;4.50;2.03;;;9.40;99.90;;;;;;5072839;28;20221;-81
2021/12/17 14:22:27;;;;;;;3.97;2.10;;;9.40;99.90;;;;;;5055437;28;20055;-81
2021/12/17 14:24:53;;;;;;;10.30;3.83;;;9.40;99.90;;;;;;5072736;28;20044;-81
2021/12/17 14:27:19;;;;;;;4.10;2.55;;;9.40;99.90;;;;;;5074268;28;20052;-82
2021/12/17 14:29:44;;;;;;;14.05;4.22;;;9.40;99.90;;;;;;5073507;28;20025;-80
2021/12/17 14:32:19;;;;;;;8.18;3.05;;;9.40;99.90;;;;;;5072869;28;20087;-80
2021/12/17 14:34:45;;;;;;;4.75;2.65;;;9.40;99.90;;;;;;5056177;28;20029;-82
2021/12/17 14:37:11;;;;;;;8.50;4.05;;;9.40;99.90;;;;;;5035142;28;20043;-84
2021/12/17 14:39:43;;;;;;;6.28;3.75;;;9.40;99.90;;;;;;5035385;28;20048;-84
2021/12/17 14:42:10;;;;;;;7.28;3.03;;;9.40;99.90;;;;;;5035051;28;20044;-84
2021/12/17 14:44:47;;;;;;;4.82;3.35;;;9.30;99.90;;;;;;5035730;28;20127;-84
2021/12/17 14:47:31;;;;;;;5.93;3.40;;;9.30;99.90;;;;;;5044791;28;20052;-84
2021/12/17 14:59:53;;;;;;;6.20;3.95;;;9.30;99.90;;;;;;5052051;28;20076;-83
2021/12/17 15:01:28;;;;;;;9.60;6.43;;;9.20;99.90;;;;;;5052516;28;20141;-82
2021/12/17 15:03:54;;;;;;;7.80;4.70;;;9.30;99.90;;;;;;5069908;28;20094;-83
2021/12/17 15:06:19;;;;;;;15.63;11.68;;;9.30;99.90;;;;;;5052994;28;20528;-84
2021/12/17 15:08:45;;;;;;;9.43;6.38;;;9.30;99.90;;;;;;5053089;28;20040;-84
2021/12/17 15:11:26;;;;;;;9.45;4.82;;;9.30;99.90;;;;;;5051472;28;20041;-84
2021/12/17 15:13:53;;;;;;;8.38;4.47;;;9.30;99.90;;;;;;5036094;28;20091;-84
2021/12/17 15:16:19;;;;;;;7.88;4.45;;;9.20;99.90;;;;;;5034236;28;20060;-84
2021/12/17 15:18:44;;;;;;;7.63;4.93;;;9.20;99.90;;;;;;5061777;28;20044;-83
2021/12/17 15:21:10;;;;;;;8.15;4.85;;;9.20;99.90;;;;;;5068723;28;20052;-84
2021/12/17 15:23:36;;;;;;;8.40;5.47;;;9.20;99.90;;;;;;5062118;28;20500;-83
2021/12/17 15:26:02;;;;;;;7.22;4.45;;;9.20;99.90;;;;;;5058276;28;20048;-82
2021/12/17 15:28:28;;;;;;;8.10;4.80;;;9.20;99.90;;;;;;5046458;28;20044;-84
2021/12/17 15:31:00;;;;;;;7.20;4.95;;;9.20;99.90;;;;;;5033773;28;20044;-84
2021/12/17 15:33:26;;;;;;;9.23;5.97;;;9.20;99.90;;;;;;5051260;28;20036;-83
2021/12/17 15:35:52;;;;;;;6.47;4.30;;;9.20;99.90;;;;;;5036574;28;20029;-82
2021/12/17 15:38:22;;;;;;;8.02;4.88;;;9.20;99.90;;;;;;5071315;28;20247;-82
2021/12/17 15:40:50;;;;;;;6.40;4.57;;;9.10;99.90;;;;;;5038318;28;20060;-81
2021/12/17 15:43:18;;;;;;;14.95;10.50;;;9.10;99.90;;;;;;5037383;28;20090;-82
2021/12/17 15:45:46;;;;;;;12.00;6.05;;;9.10;99.90;;;;;;5054793;28;20055;-81
2021/12/17 15:48:14;;;;;;;7.63;4.68;;;9.10;99.90;;;;;;5036698;28;20130;-82
2021/12/17 15:50:41;;;;;;;9.48;5.28;;;9.10;99.90;;;;;;5037489;28;20429;-82
2021/12/17 15:53:07;;;;;;;10.18;5.38;;;9.10;99.90;;;;;;5040749;28;20120;-82